createdAt,value
2022-08-20T00:00:14.234Z,12.73
2022-08-20T00:02:45.590Z,12.75
2022-08-20T00:05:13.022Z,14.88
2022-08-20T00:07:40.253Z,19.60
2022-08-20T00:10:07.820Z,16.02
2022-08-20T00:12:35.316Z,17.67
2022-08-20T00:15:04.861Z,14.70
2022-08-20T00:17:37.861Z,12.50
2022-08-20T00:20:09.497Z,13.10
2022-08-20T00:22:36.668Z,18.45
2022-08-20T00:25:05.119Z,18.10
2022-08-20T00:27:32.257Z,16.92
2022-08-20T00:29:59.417Z,18.50
2022-08-20T00:32:26.584Z,14.18
2022-08-20T00:34:53.731Z,15.35
2022-08-20T00:37:20.854Z,17.17
2022-08-20T00:39:48.120Z,13.85
2022-08-20T00:42:15.263Z,12.48
2022-08-20T00:44:46.129Z,15.35
2022-08-20T00:47:13.314Z,11.88
2022-08-20T00:49:40.540Z,12.20
2022-08-20T00:52:09.209Z,15.30
2022-08-20T00:54:39.168Z,16.80
2022-08-20T00:57:10.683Z,14.50
2022-08-20T00:59:39.940Z,13.73
2022-08-20T01:02:08.453Z,15.63
2022-08-20T01:04:35.742Z,11.90
2022-08-20T01:07:03.166Z,12.00
2022-08-20T01:09:49.946Z,12.35
2022-08-20T01:12:17.493Z,12.50
2022-08-20T01:14:47.657Z,15.15
2022-08-20T01:17:17.700Z,13.90
2022-08-20T01:19:55.474Z,14.98
2022-08-20T01:22:44.657Z,13.38
2022-08-20T01:25:13.868Z,13.63
2022-08-20T01:27:42.675Z,12.63
2022-08-20T01:30:23.078Z,15.68
2022-08-20T01:32:50.198Z,13.98
2022-08-20T01:35:20.648Z,12.80
2022-08-20T01:37:47.818Z,13.85
2022-08-20T01:40:15.099Z,12.85
2022-08-20T01:42:58.621Z,11.43
2022-08-20T01:45:30.264Z,11.85
2022-08-20T01:47:58.251Z,13.63
2022-08-20T01:50:26.653Z,15.88
2022-08-20T01:52:58.255Z,12.45
2022-08-20T01:55:26.810Z,14.45
2022-08-20T01:57:54.002Z,14.32
2022-08-20T02:00:22.464Z,12.32
2022-08-20T02:02:49.862Z,17.33
2022-08-20T02:05:17.686Z,12.02
2022-08-20T02:07:44.869Z,12.57
2022-08-20T02:10:12.848Z,13.98
2022-08-20T02:12:40.039Z,12.32
2022-08-20T02:15:08.241Z,12.63
2022-08-20T02:17:36.325Z,13.55
2022-08-20T02:20:08.074Z,12.23
2022-08-20T02:22:37.013Z,13.70
2022-08-20T02:25:05.422Z,15.40
2022-08-20T02:27:32.623Z,14.25
2022-08-20T02:29:59.826Z,12.27
2022-08-20T02:32:33.633Z,11.40
2022-08-20T02:35:03.428Z,13.63
2022-08-20T02:37:30.578Z,13.23
2022-08-20T02:39:57.762Z,10.95
2022-08-20T02:42:26.351Z,9.63
2022-08-20T02:44:54.460Z,10.93
2022-08-20T02:47:21.638Z,11.15
2022-08-20T02:49:48.821Z,8.60
2022-08-20T02:52:15.957Z,9.85
2022-08-20T02:54:43.125Z,12.55
2022-08-20T02:57:20.233Z,13.43
2022-08-20T02:59:52.206Z,10.95
2022-08-20T03:02:19.346Z,11.05
2022-08-20T03:04:46.521Z,10.25
2022-08-20T03:07:14.527Z,8.93
2022-08-20T03:09:41.863Z,10.20
2022-08-20T03:12:09.195Z,12.00
2022-08-20T03:14:36.449Z,11.93
2022-08-20T03:17:03.700Z,13.75
2022-08-20T03:19:30.867Z,12.55
2022-08-20T03:21:57.999Z,10.63
2022-08-20T03:24:25.195Z,10.55
2022-08-20T03:26:52.355Z,10.60
2022-08-20T03:29:19.546Z,11.05
2022-08-20T03:31:46.737Z,10.60
2022-08-20T03:34:13.902Z,14.73
2022-08-20T03:36:41.098Z,14.05
2022-08-20T03:39:11.681Z,14.90
2022-08-20T03:41:39.300Z,12.88
2022-08-20T03:44:06.955Z,13.13
2022-08-20T03:46:34.566Z,13.02
2022-08-20T03:49:01.743Z,17.35
2022-08-20T03:51:31.851Z,54.58
2022-08-20T03:54:18.677Z,48.10
2022-08-20T03:56:45.797Z,27.42
2022-08-20T03:59:12.950Z,22.38
2022-08-20T04:01:46.275Z,21.15
2022-08-20T04:04:14.201Z,19.00
2022-08-20T04:06:42.566Z,19.52
2022-08-20T04:09:11.978Z,23.83
2022-08-20T04:11:39.843Z,18.83
2022-08-20T04:14:07.004Z,13.70
2022-08-20T04:16:34.462Z,15.00
2022-08-20T04:19:03.594Z,22.85
2022-08-20T04:21:33.029Z,18.40
2022-08-20T04:24:00.917Z,15.57
2022-08-20T04:26:28.078Z,17.60
2022-08-20T04:28:55.634Z,20.23
2022-08-20T04:31:33.814Z,16.25
2022-08-20T04:34:04.176Z,17.52
2022-08-20T04:36:31.472Z,16.40
2022-08-20T04:38:58.643Z,18.70
2022-08-20T04:41:25.837Z,17.98
2022-08-20T04:43:54.064Z,15.77
2022-08-20T04:46:21.547Z,17.80
2022-08-20T04:48:50.319Z,17.27
2022-08-20T04:51:18.671Z,20.70
2022-08-20T04:53:51.780Z,14.73
2022-08-20T04:56:23.458Z,15.70
2022-08-20T04:58:51.344Z,13.35
2022-08-20T05:01:18.576Z,15.23
2022-08-20T05:03:47.820Z,15.00
2022-08-20T05:06:16.215Z,13.27
2022-08-20T05:08:43.540Z,13.90
2022-08-20T05:11:34.023Z,16.45
2022-08-20T05:13:58.121Z,15.23
2022-08-20T05:16:25.348Z,21.67
2022-08-20T05:18:53.050Z,15.85
2022-08-20T05:21:20.761Z,17.98
2022-08-20T05:23:49.380Z,16.65
2022-08-20T05:26:17.102Z,28.77
2022-08-20T05:28:45.293Z,25.73
2022-08-20T05:31:31.400Z,19.55
2022-08-20T05:34:06.977Z,16.85
2022-08-20T05:36:34.809Z,18.10
2022-08-20T05:39:02.096Z,17.60
2022-08-20T05:41:30.440Z,16.10
2022-08-20T05:44:00.673Z,16.38
2022-08-20T05:46:28.099Z,20.30
2022-08-20T05:48:55.250Z,16.85
2022-08-20T05:51:27.022Z,19.58
2022-08-20T05:53:54.393Z,18.60
2022-08-20T05:56:26.637Z,17.52
2022-08-20T05:58:54.382Z,19.08
2022-08-20T06:01:21.659Z,14.25
2022-08-20T06:04:07.446Z,18.88
2022-08-20T06:06:45.214Z,16.02
2022-08-20T06:09:14.686Z,14.10
2022-08-20T06:11:41.831Z,12.70
2022-08-20T06:14:09.009Z,15.23
2022-08-20T06:16:37.381Z,17.48
2022-08-20T06:19:04.999Z,18.20
2022-08-20T06:21:32.702Z,15.63
2022-08-20T06:24:02.522Z,12.25
2022-08-20T06:26:30.840Z,13.23
2022-08-20T06:29:00.197Z,13.20
2022-08-20T06:31:27.606Z,13.52
2022-08-20T06:33:54.950Z,12.10
2022-08-20T06:36:22.153Z,15.35
2022-08-20T06:38:49.329Z,13.07
2022-08-20T06:41:17.277Z,13.45
2022-08-20T06:43:44.436Z,12.93
2022-08-20T06:46:12.226Z,11.60
2022-08-20T06:48:39.365Z,14.23
2022-08-20T06:51:06.864Z,16.80
2022-08-20T06:53:34.057Z,14.05
2022-08-20T06:56:01.231Z,14.30
2022-08-20T06:58:37.322Z,11.85
2022-08-20T07:01:09.488Z,13.32
2022-08-20T07:03:38.314Z,13.63
2022-08-20T07:06:05.653Z,12.75
2022-08-20T07:08:32.817Z,13.50
2022-08-20T07:10:59.982Z,12.45
2022-08-20T07:13:27.505Z,12.27
2022-08-20T07:15:54.890Z,12.02
2022-08-20T07:18:28.883Z,17.88
2022-08-20T07:20:57.123Z,14.73
2022-08-20T07:23:25.035Z,15.77
2022-08-20T07:25:52.260Z,15.38
2022-08-20T07:28:21.696Z,12.68
2022-08-20T07:31:13.476Z,12.68
2022-08-20T07:33:44.528Z,11.88
2022-08-20T07:36:12.161Z,14.55
2022-08-20T07:38:39.385Z,13.20
2022-08-20T07:41:07.714Z,11.55
2022-08-20T07:43:34.965Z,12.18
2022-08-20T07:46:02.966Z,13.05
2022-08-20T07:48:31.748Z,12.73
2022-08-20T07:50:59.926Z,10.65
2022-08-20T07:53:27.102Z,10.38
2022-08-20T07:55:59.324Z,13.50
2022-08-20T07:58:29.555Z,11.50
2022-08-20T08:01:00.847Z,11.98
2022-08-20T08:03:37.642Z,11.90
2022-08-20T08:06:18.252Z,11.48
2022-08-20T08:08:56.949Z,9.93
2022-08-20T08:11:24.168Z,10.15
2022-08-20T08:13:51.977Z,11.80
2022-08-20T08:16:20.171Z,10.77
2022-08-20T08:18:50.044Z,12.10
2022-08-20T08:21:17.777Z,12.32
2022-08-20T08:23:45.434Z,11.10
2022-08-20T08:26:16.362Z,9.57
2022-08-20T08:28:46.562Z,12.27
2022-08-20T08:31:14.005Z,10.73
2022-08-20T08:33:41.581Z,12.45
2022-08-20T08:36:09.818Z,16.15
2022-08-20T08:38:38.004Z,11.13
2022-08-20T08:41:23.833Z,9.95
2022-08-20T08:43:53.402Z,13.85
2022-08-20T08:46:22.610Z,12.02
2022-08-20T08:48:50.693Z,10.65
2022-08-20T08:51:18.429Z,11.02
2022-08-20T08:53:54.904Z,14.43
2022-08-20T08:56:24.409Z,12.77
2022-08-20T08:58:51.706Z,11.65
2022-08-20T09:01:54.682Z,12.20
2022-08-20T09:04:06.605Z,11.88
2022-08-20T09:06:33.833Z,10.93
2022-08-20T09:09:02.917Z,9.05
2022-08-20T09:11:30.138Z,11.40
2022-08-20T09:13:57.319Z,10.43
2022-08-20T09:16:24.912Z,10.38
2022-08-20T09:18:55.103Z,10.32
2022-08-20T09:21:22.323Z,8.45
2022-08-20T09:23:49.466Z,9.15
2022-08-20T09:26:16.643Z,13.95
2022-08-20T09:28:43.801Z,10.32
2022-08-20T09:31:15.042Z,9.73
2022-08-20T09:33:45.439Z,10.20
2022-08-20T09:36:29.238Z,29.48
2022-08-20T09:38:59.659Z,13.55
2022-08-20T09:41:26.801Z,11.73
2022-08-20T09:43:54.523Z,29.63
2022-08-20T09:46:27.185Z,17.25
2022-08-20T09:48:54.885Z,13.13
2022-08-20T09:51:22.122Z,9.15
2022-08-20T09:53:49.291Z,11.38
2022-08-20T09:56:16.431Z,14.70
2022-08-20T09:58:46.361Z,17.67
2022-08-20T10:01:15.103Z,13.05
2022-08-20T10:03:42.920Z,18.90
2022-08-20T10:06:11.251Z,12.20
2022-08-20T10:08:38.713Z,68.63
2022-08-20T10:11:05.941Z,14.02
2022-08-20T10:13:33.125Z,10.10
2022-08-20T10:16:00.343Z,10.13
2022-08-20T10:18:27.487Z,12.35
2022-08-20T10:20:54.636Z,10.55
2022-08-20T10:23:21.746Z,7.65
2022-08-20T10:25:49.001Z,14.23
2022-08-20T10:28:16.218Z,7.82
2022-08-20T10:30:45.087Z,11.93
2022-08-20T10:33:12.242Z,8.43
2022-08-20T10:35:39.394Z,9.55
2022-08-20T10:38:06.524Z,9.98
2022-08-20T10:40:33.702Z,12.30
2022-08-20T10:43:00.932Z,10.98
2022-08-20T10:45:28.111Z,12.63
2022-08-20T10:47:55.306Z,13.52
2022-08-20T10:50:22.537Z,10.18
2022-08-20T10:52:49.665Z,10.18
2022-08-20T10:55:18.361Z,13.93
2022-08-20T10:57:45.596Z,10.25
2022-08-20T11:00:17.126Z,7.82
2022-08-20T11:02:44.661Z,13.27
2022-08-20T11:05:12.605Z,11.93
2022-08-20T11:08:00.232Z,8.52
2022-08-20T11:10:28.025Z,9.88
2022-08-20T11:12:56.226Z,10.80
2022-08-20T11:15:23.622Z,13.90
2022-08-20T11:17:50.989Z,9.13
2022-08-20T11:20:19.178Z,10.32
2022-08-20T11:22:47.040Z,8.98
2022-08-20T11:25:14.314Z,10.35
2022-08-20T11:27:44.527Z,10.20
2022-08-20T11:30:13.202Z,12.38
2022-08-20T11:32:40.376Z,12.70
2022-08-20T11:35:38.331Z,9.57
2022-08-20T11:37:55.794Z,11.43
2022-08-20T11:40:23.095Z,10.68
2022-08-20T11:43:13.154Z,11.07
2022-08-20T11:45:37.928Z,12.00
2022-08-20T11:48:05.295Z,14.10
2022-08-20T11:50:32.444Z,10.68
2022-08-20T11:53:01.208Z,11.05
2022-08-20T11:55:29.944Z,11.10
2022-08-20T11:58:00.029Z,8.75
2022-08-20T12:00:32.229Z,8.43
2022-08-20T12:03:00.832Z,8.40
2022-08-20T12:05:29.820Z,11.65
2022-08-20T12:07:57.565Z,6.38
2022-08-20T12:10:26.619Z,9.60
2022-08-20T12:12:54.111Z,5.75
2022-08-20T12:15:21.335Z,5.22
2022-08-20T12:17:48.504Z,4.68
2022-08-20T12:20:16.670Z,7.07
2022-08-20T12:22:46.565Z,9.30
2022-08-20T12:25:13.877Z,9.18
2022-08-20T12:27:41.518Z,7.78
2022-08-20T12:30:09.904Z,6.47
2022-08-20T12:32:37.235Z,6.80
2022-08-20T12:35:05.016Z,6.88
2022-08-20T12:37:32.359Z,5.63
2022-08-20T12:40:00.208Z,5.80
2022-08-20T12:42:27.706Z,9.18
2022-08-20T12:44:54.911Z,5.97
2022-08-20T12:47:28.225Z,5.57
2022-08-20T12:49:56.631Z,4.47
2022-08-20T12:52:24.126Z,5.45
2022-08-20T12:54:51.345Z,6.18
2022-08-20T12:57:44.973Z,6.65
2022-08-20T13:00:14.082Z,7.28
2022-08-20T13:02:41.531Z,10.07
2022-08-20T13:05:09.509Z,5.13
2022-08-20T13:07:37.071Z,6.97
2022-08-20T13:10:04.585Z,6.95
2022-08-20T13:12:31.742Z,8.98
2022-08-20T13:14:58.896Z,7.50
2022-08-20T13:17:33.624Z,9.68
2022-08-20T13:20:07.280Z,10.90
2022-08-20T13:22:34.411Z,9.13
2022-08-20T13:25:01.532Z,9.70
2022-08-20T13:27:28.736Z,7.78
2022-08-20T13:29:58.878Z,9.27
2022-08-20T13:32:26.398Z,11.30
2022-08-20T13:34:53.646Z,10.25
2022-08-20T13:37:25.084Z,9.30
2022-08-20T13:39:53.015Z,7.75
2022-08-20T13:42:20.244Z,8.15
2022-08-20T13:44:47.483Z,13.63
2022-08-20T13:47:15.474Z,12.07
2022-08-20T13:49:42.938Z,15.10
2022-08-20T13:52:10.353Z,15.68
2022-08-20T13:54:38.243Z,17.50
2022-08-20T13:57:13.161Z,16.52
2022-08-20T13:59:40.954Z,14.60
2022-08-20T14:02:08.476Z,15.05
2022-08-20T14:04:35.932Z,18.88
2022-08-20T14:07:32.472Z,16.52
2022-08-20T14:10:04.816Z,18.17
2022-08-20T14:12:32.245Z,12.82
2022-08-20T14:14:59.434Z,16.42
2022-08-20T14:17:28.715Z,17.45
2022-08-20T14:20:00.863Z,20.35
2022-08-20T14:22:28.864Z,21.90
2022-08-20T14:24:56.515Z,22.20
2022-08-20T14:27:29.028Z,17.30
2022-08-20T14:29:58.437Z,20.20
2022-08-20T14:32:25.713Z,13.48
2022-08-20T14:34:53.575Z,11.40
2022-08-20T14:37:20.913Z,11.10
2022-08-20T14:39:49.086Z,12.18
2022-08-20T14:42:16.287Z,12.52
2022-08-20T14:44:43.881Z,16.42
2022-08-20T14:47:11.467Z,17.58
2022-08-20T14:49:38.938Z,12.57
2022-08-20T14:52:06.283Z,14.75
2022-08-20T14:54:33.506Z,15.80
2022-08-20T14:57:02.019Z,21.55
2022-08-20T14:59:29.594Z,16.38
2022-08-20T15:01:57.264Z,17.60
2022-08-20T15:04:25.637Z,17.17
2022-08-20T15:06:54.595Z,18.83
2022-08-20T15:09:21.917Z,17.08
2022-08-20T15:11:49.086Z,17.00
2022-08-20T15:14:16.959Z,17.13
2022-08-20T15:16:45.761Z,15.60
2022-08-20T15:19:12.936Z,16.67
2022-08-20T15:21:45.426Z,16.75
2022-08-20T15:24:18.869Z,23.00
2022-08-20T15:26:46.820Z,18.88
2022-08-20T15:29:23.036Z,20.08
2022-08-20T15:31:50.990Z,18.58
2022-08-20T15:34:18.515Z,19.25
2022-08-20T15:36:46.190Z,17.85
2022-08-20T15:39:13.375Z,20.77
2022-08-20T15:41:40.530Z,17.90
2022-08-20T15:44:07.656Z,18.15
2022-08-20T15:46:36.365Z,15.20
2022-08-20T15:49:06.734Z,16.08
2022-08-20T15:51:34.774Z,16.33
2022-08-20T15:54:02.911Z,22.83
2022-08-20T15:56:48.934Z,24.48
2022-08-20T15:59:34.875Z,23.30
2022-08-20T16:02:02.212Z,24.73
2022-08-20T16:04:33.559Z,23.77
2022-08-20T16:07:01.593Z,25.80
2022-08-20T16:09:35.855Z,27.67
2022-08-20T16:12:06.150Z,38.08
2022-08-20T16:14:37.943Z,33.20
2022-08-20T16:17:16.224Z,28.92
2022-08-20T16:19:54.905Z,28.98
2022-08-20T16:22:22.128Z,22.38
2022-08-20T16:24:49.401Z,31.42
2022-08-20T16:27:35.361Z,25.70
2022-08-20T16:30:03.630Z,38.08
2022-08-20T16:32:31.098Z,34.67
2022-08-20T16:34:59.618Z,65.60
2022-08-20T16:37:30.990Z,51.92
2022-08-20T16:40:04.927Z,48.58
2022-08-20T16:42:34.270Z,42.95
2022-08-20T16:45:01.403Z,48.72
2022-08-20T16:47:32.318Z,43.20
2022-08-20T16:49:59.454Z,74.00
2022-08-20T16:52:26.598Z,84.07
2022-08-20T16:54:53.762Z,64.20
2022-08-20T16:57:20.992Z,43.78
2022-08-20T17:00:16.657Z,42.10
2022-08-20T17:02:52.864Z,30.77
2022-08-20T17:05:20.984Z,38.20
2022-08-20T17:07:53.018Z,50.45
2022-08-20T17:10:27.577Z,67.43
2022-08-20T17:12:59.987Z,78.68
2022-08-20T17:15:31.671Z,61.25
2022-08-20T17:17:58.880Z,41.30
2022-08-20T17:20:29.151Z,45.97
2022-08-20T17:23:07.693Z,46.28
2022-08-20T17:25:38.464Z,38.65
2022-08-20T17:28:21.442Z,31.17
2022-08-20T17:30:49.028Z,35.72
2022-08-20T17:33:39.294Z,36.80
2022-08-20T17:36:11.468Z,25.23
2022-08-20T17:38:39.713Z,29.70
2022-08-20T17:41:17.337Z,28.85
2022-08-20T17:43:45.015Z,32.42
2022-08-20T17:46:12.854Z,33.70
2022-08-20T17:48:42.502Z,35.78
2022-08-20T17:51:14.725Z,31.67
2022-08-20T17:53:41.915Z,32.97
2022-08-20T17:56:29.322Z,37.65
2022-08-20T17:59:03.335Z,34.25
2022-08-20T18:01:33.061Z,33.28
2022-08-20T18:04:00.227Z,34.65
2022-08-20T18:06:30.466Z,30.80
2022-08-20T18:09:03.279Z,35.00
2022-08-20T18:11:34.168Z,38.38
2022-08-20T18:14:07.349Z,35.45
2022-08-20T18:16:45.609Z,36.88
2022-08-20T18:19:25.152Z,30.05
2022-08-20T18:22:02.473Z,38.47
2022-08-20T18:24:49.929Z,38.60
2022-08-20T18:27:17.578Z,32.70
2022-08-20T18:29:54.931Z,35.72
2022-08-20T18:32:25.244Z,37.17
2022-08-20T18:34:52.772Z,38.88
2022-08-20T18:37:19.991Z,34.80
2022-08-20T18:39:48.001Z,38.00
2022-08-20T18:42:24.272Z,42.10
2022-08-20T18:44:52.361Z,38.70
2022-08-20T18:47:21.085Z,35.65
2022-08-20T18:49:48.267Z,35.47
2022-08-20T18:52:26.182Z,34.42
2022-08-20T18:54:54.458Z,36.47
2022-08-20T18:57:25.967Z,35.13
2022-08-20T19:00:12.538Z,32.75
2022-08-20T19:02:51.571Z,28.20
2022-08-20T19:05:22.795Z,80.88
2022-08-20T19:07:49.981Z,44.15
2022-08-20T19:10:35.836Z,53.05
2022-08-20T19:13:16.185Z,53.65
2022-08-20T19:15:48.007Z,51.47
2022-08-20T19:18:22.405Z,44.13
2022-08-20T19:20:52.073Z,42.75
2022-08-20T19:23:23.270Z,31.10
2022-08-20T19:25:55.724Z,18.67
2022-08-20T19:28:35.267Z,19.38
2022-08-20T19:31:09.340Z,16.65
2022-08-20T19:33:44.326Z,22.02
2022-08-20T19:36:16.383Z,17.80
2022-08-20T19:38:47.384Z,17.17
2022-08-20T19:41:31.181Z,17.33
2022-08-20T19:43:59.028Z,16.38
2022-08-20T19:46:28.350Z,14.60
2022-08-20T19:49:09.765Z,14.10
2022-08-20T19:51:47.958Z,15.00
2022-08-20T19:54:19.535Z,16.90
2022-08-20T19:56:46.757Z,14.23
2022-08-20T19:59:17.147Z,17.52
2022-08-20T20:01:51.974Z,18.27
2022-08-20T20:04:19.150Z,20.00
2022-08-20T20:06:47.317Z,17.85
2022-08-20T20:09:15.926Z,19.67
2022-08-20T20:11:45.437Z,18.48
2022-08-20T20:14:13.068Z,23.23
2022-08-20T20:16:40.807Z,24.33
2022-08-20T20:19:26.435Z,16.67
2022-08-20T20:22:23.926Z,19.67
2022-08-20T20:25:11.335Z,18.10
2022-08-20T20:27:38.505Z,20.40
2022-08-20T20:30:05.885Z,20.90
2022-08-20T20:32:36.699Z,19.80
2022-08-20T20:35:04.833Z,20.08
2022-08-20T20:37:48.808Z,19.23
2022-08-20T20:40:19.462Z,20.33
2022-08-20T20:42:56.508Z,17.60
2022-08-20T20:45:23.881Z,21.50
2022-08-20T20:47:51.804Z,21.98
2022-08-20T20:50:33.774Z,27.88
2022-08-20T20:53:01.580Z,42.92
2022-08-20T20:55:29.937Z,49.50
2022-08-20T20:57:57.275Z,38.75
2022-08-20T21:00:26.770Z,38.42
2022-08-20T21:02:54.055Z,32.00
2022-08-20T21:05:22.747Z,33.65
2022-08-20T21:07:56.688Z,30.50
2022-08-20T21:10:24.548Z,34.30
2022-08-20T21:12:57.243Z,47.03
2022-08-20T21:15:24.955Z,40.38
2022-08-20T21:17:52.213Z,36.33
2022-08-20T21:20:19.803Z,22.50
2022-08-20T21:22:46.969Z,21.73
2022-08-20T21:25:14.182Z,15.27
2022-08-20T21:27:42.607Z,15.55
2022-08-20T21:30:09.922Z,15.82
2022-08-20T21:32:37.061Z,21.98
2022-08-20T21:35:04.286Z,23.58
2022-08-20T21:37:31.518Z,21.98
2022-08-20T21:39:58.961Z,18.35
2022-08-20T21:42:29.664Z,24.70
2022-08-20T21:44:57.430Z,18.55
2022-08-20T21:47:24.562Z,20.30
2022-08-20T21:49:51.680Z,16.73
2022-08-20T21:52:19.002Z,19.20
2022-08-20T21:54:46.150Z,20.10
2022-08-20T21:57:20.198Z,15.52
2022-08-20T21:59:47.379Z,16.88
2022-08-20T22:02:14.566Z,19.33
2022-08-20T22:04:41.727Z,16.10
2022-08-20T22:07:09.065Z,13.45
2022-08-20T22:09:38.316Z,16.10
2022-08-20T22:12:06.830Z,14.50
2022-08-20T22:14:33.965Z,16.83
2022-08-20T22:17:01.116Z,16.88
2022-08-20T22:19:28.316Z,16.63
2022-08-20T22:21:55.452Z,16.05
2022-08-20T22:24:22.586Z,14.15
2022-08-20T22:26:49.764Z,12.60
2022-08-20T22:29:16.886Z,13.00
2022-08-20T22:31:44.050Z,18.77
2022-08-20T22:34:11.789Z,14.68
2022-08-20T22:36:38.962Z,15.60
2022-08-20T22:39:06.616Z,12.48
2022-08-20T22:41:33.944Z,11.77
2022-08-20T22:44:01.140Z,11.57
2022-08-20T22:46:29.222Z,17.65
2022-08-20T22:48:56.442Z,13.80
2022-08-20T22:51:24.912Z,18.17
2022-08-20T22:53:52.066Z,14.35
2022-08-20T22:56:21.651Z,14.52
2022-08-20T22:58:50.150Z,18.35
2022-08-20T23:01:17.825Z,19.13
2022-08-20T23:03:45.040Z,20.20
2022-08-20T23:06:12.182Z,23.05
2022-08-20T23:08:39.652Z,20.88
2022-08-20T23:11:07.000Z,20.35
2022-08-20T23:13:34.420Z,21.85
2022-08-20T23:16:01.689Z,20.38
2022-08-20T23:18:28.906Z,22.08
2022-08-20T23:20:56.825Z,20.33
2022-08-20T23:23:24.536Z,20.95
2022-08-20T23:25:51.720Z,20.23
2022-08-20T23:28:19.173Z,18.02
2022-08-20T23:30:46.680Z,15.60
2022-08-20T23:33:13.839Z,13.00
2022-08-20T23:35:41.064Z,13.68
2022-08-20T23:38:08.221Z,15.48
2022-08-20T23:40:35.504Z,14.02
2022-08-20T23:43:02.711Z,13.10
2022-08-20T23:45:29.979Z,16.15
2022-08-20T23:47:57.154Z,23.00
2022-08-20T23:50:25.624Z,28.60
2022-08-20T23:52:53.191Z,23.20
2022-08-20T23:55:20.652Z,16.42
2022-08-20T23:57:47.842Z,26.08
